createdAt,value
2018-01-22T00:01:31.276Z,10.43
2018-01-22T00:03:59.100Z,8.60
2018-01-22T00:06:26.946Z,9.00
2018-01-22T00:08:54.726Z,13.40
2018-01-22T00:11:22.541Z,7.83
2018-01-22T00:13:51.186Z,8.73
2018-01-22T00:16:19.058Z,13.90
2018-01-22T00:18:46.822Z,6.72
2018-01-22T00:21:15.359Z,12.80
2018-01-22T00:23:44.450Z,5.73
2018-01-22T00:26:13.069Z,5.93
2018-01-22T00:28:40.914Z,11.20
2018-01-22T00:31:08.686Z,4.30
2018-01-22T00:33:37.314Z,8.63
2018-01-22T00:36:05.146Z,5.57
2018-01-22T00:38:32.940Z,8.80
2018-01-22T00:41:00.731Z,3.37
2018-01-22T00:43:28.527Z,8.83
2018-01-22T00:45:56.307Z,8.80
2018-01-22T00:48:24.074Z,6.10
2018-01-22T00:50:51.952Z,4.40
2018-01-22T00:53:19.725Z,3.23
2018-01-22T00:55:47.543Z,2.83
2018-01-22T00:58:16.094Z,9.93
2018-01-22T01:00:43.880Z,2.60
2018-01-22T01:03:12.601Z,2.10
2018-01-22T01:05:40.399Z,2.83
2018-01-22T01:08:08.281Z,3.83
2018-01-22T01:10:37.622Z,8.07
2018-01-22T01:13:05.457Z,3.13
2018-01-22T01:15:33.294Z,3.17
2018-01-22T01:18:01.184Z,5.70
2018-01-22T01:20:29.723Z,3.07
2018-01-22T01:22:57.546Z,7.10
2018-01-22T01:25:25.414Z,10.87
2018-01-22T01:27:53.217Z,9.73
2018-01-22T01:30:21.101Z,12.70
2018-01-22T01:32:48.874Z,13.00
2018-01-22T01:35:16.630Z,12.93
2018-01-22T01:37:44.419Z,14.57
2018-01-22T01:40:12.262Z,10.13
2018-01-22T01:42:40.016Z,11.13
2018-01-22T01:45:07.790Z,8.17
2018-01-22T01:47:35.657Z,8.40
2018-01-22T01:50:03.512Z,11.83
2018-01-22T01:52:31.334Z,7.33
2018-01-22T01:54:59.862Z,7.93
2018-01-22T01:57:27.690Z,14.20
2018-01-22T01:59:55.449Z,6.63
2018-01-22T02:02:24.027Z,8.10
2018-01-22T02:04:52.614Z,11.80
2018-01-22T02:07:21.814Z,10.63
2018-01-22T02:09:50.348Z,11.17
2018-01-22T02:12:18.210Z,11.30
2018-01-22T02:14:45.982Z,8.30
2018-01-22T02:17:13.752Z,13.57
2018-01-22T02:19:41.625Z,8.00
2018-01-22T02:22:09.426Z,10.00
2018-01-22T02:24:37.190Z,6.97
2018-01-22T02:27:04.959Z,8.80
2018-01-22T02:29:32.771Z,9.80
2018-01-22T02:32:00.559Z,9.37
2018-01-22T02:34:29.196Z,7.27
2018-01-22T02:36:56.971Z,11.30
2018-01-22T02:39:24.809Z,6.40
2018-01-22T02:41:52.593Z,8.40
2018-01-22T02:44:20.366Z,10.33
2018-01-22T02:46:48.139Z,7.30
2018-01-22T02:49:15.921Z,10.40
2018-01-22T02:51:43.698Z,9.07
2018-01-22T02:54:12.291Z,4.60
2018-01-22T02:56:40.845Z,6.90
2018-01-22T02:59:08.628Z,6.33
2018-01-22T03:01:37.165Z,3.80
2018-01-22T03:04:05.054Z,11.57
2018-01-22T03:06:32.858Z,5.27
2018-01-22T03:09:00.649Z,5.23
2018-01-22T03:11:28.424Z,3.40
2018-01-22T03:13:56.211Z,6.13
2018-01-22T03:16:23.971Z,3.10
2018-01-22T03:18:51.731Z,3.23
2018-01-22T03:21:19.491Z,3.87
2018-01-22T03:23:47.282Z,4.20
2018-01-22T03:26:15.819Z,10.93
2018-01-22T03:28:43.610Z,4.43
2018-01-22T03:31:11.410Z,4.00
2018-01-22T03:33:39.190Z,5.00
2018-01-22T03:36:06.951Z,3.63
2018-01-22T03:38:34.790Z,4.83
2018-01-22T03:41:02.591Z,4.30
2018-01-22T03:43:30.368Z,6.40
2018-01-22T03:45:58.201Z,9.63
2018-01-22T03:48:25.987Z,4.17
2018-01-22T03:50:53.751Z,3.40
2018-01-22T03:53:21.531Z,6.10
2018-01-22T03:55:49.427Z,3.00
2018-01-22T03:58:17.213Z,4.32
2018-01-22T04:00:45.776Z,10.27
2018-01-22T04:03:13.560Z,5.13
2018-01-22T04:05:42.146Z,5.73
2018-01-22T04:08:10.717Z,5.73
2018-01-22T04:10:39.254Z,3.13
2018-01-22T04:13:07.021Z,6.67
2018-01-22T04:15:34.802Z,4.80
2018-01-22T04:18:02.588Z,6.50
2018-01-22T04:20:30.434Z,9.30
2018-01-22T04:22:58.234Z,8.13
2018-01-22T04:25:26.816Z,4.07
2018-01-22T04:27:55.345Z,4.10
2018-01-22T04:30:23.171Z,5.33
2018-01-22T04:32:51.009Z,4.13
2018-01-22T04:35:18.846Z,4.60
2018-01-22T04:37:46.662Z,9.80
2018-01-22T04:40:15.253Z,2.67
2018-01-22T04:42:43.051Z,2.90
2018-01-22T04:45:10.896Z,5.77
2018-01-22T04:47:38.731Z,3.07
2018-01-22T04:50:07.272Z,4.00
2018-01-22T04:52:35.032Z,4.90
2018-01-22T04:55:02.800Z,4.03
2018-01-22T04:57:30.605Z,4.80
2018-01-22T04:59:59.168Z,2.63
2018-01-22T05:02:26.975Z,2.87
2018-01-22T05:04:55.282Z,7.33
2018-01-22T05:07:23.054Z,6.47
2018-01-22T05:09:50.942Z,3.27
2018-01-22T05:12:19.690Z,2.50
2018-01-22T05:14:47.462Z,2.70
2018-01-22T05:17:15.386Z,3.73
2018-01-22T05:19:43.158Z,2.93
2018-01-22T05:22:11.739Z,3.60
2018-01-22T05:24:40.270Z,3.20
2018-01-22T05:27:08.101Z,3.30
2018-01-22T05:29:35.896Z,5.03
2018-01-22T05:32:03.745Z,3.50
2018-01-22T05:34:31.518Z,4.00
2018-01-22T05:36:59.366Z,4.13
2018-01-22T05:39:27.996Z,5.07
2018-01-22T05:41:55.750Z,5.27
2018-01-22T05:44:23.512Z,5.20
2018-01-22T05:46:51.306Z,3.80
2018-01-22T05:49:19.854Z,3.73
2018-01-22T05:51:48.456Z,2.37
2018-01-22T05:54:16.218Z,2.77
2018-01-22T05:56:44.067Z,4.17
2018-01-22T05:59:11.898Z,3.67
2018-01-22T06:01:40.670Z,2.70
2018-01-22T06:04:08.498Z,3.53
2018-01-22T06:06:36.343Z,3.80
2018-01-22T06:09:04.304Z,3.43
2018-01-22T06:11:46.882Z,4.77
2018-01-22T06:17:45.422Z,2.10
2018-01-22T06:20:14.311Z,4.40
2018-01-22T06:22:54.786Z,3.20
2018-01-22T06:25:22.663Z,3.37
2018-01-22T06:27:51.812Z,4.13
2018-01-22T06:30:33.751Z,6.83
2018-01-22T06:33:01.583Z,4.07
2018-01-22T06:35:30.979Z,8.73
2018-01-22T06:38:00.179Z,10.03
2018-01-22T06:40:28.092Z,4.23
2018-01-22T06:43:03.279Z,3.13
2018-01-22T06:45:31.114Z,4.80
2018-01-22T06:48:03.903Z,5.83
2018-01-22T06:51:07.337Z,4.17
2018-01-22T06:53:35.126Z,5.57
2018-01-22T06:56:10.071Z,7.33
2018-01-22T06:58:38.915Z,5.37
2018-01-22T07:01:08.059Z,7.43
2018-01-22T07:03:37.146Z,11.00
2018-01-22T07:06:06.267Z,7.20
2018-01-22T07:08:35.219Z,7.93
2018-01-22T07:11:04.497Z,7.03
2018-01-22T07:13:39.618Z,10.70
2018-01-22T07:16:52.046Z,8.43
2018-01-22T07:22:43.739Z,8.75
2018-01-22T07:25:12.751Z,5.77
2018-01-22T07:27:46.475Z,11.37
2018-01-22T07:30:31.192Z,6.07
2018-01-22T07:33:02.919Z,5.83
2018-01-22T07:35:36.795Z,3.87
2018-01-22T07:38:10.590Z,4.97
2018-01-22T07:43:44.646Z,2.53
2018-01-22T07:49:15.006Z,2.17
2018-01-22T07:51:44.295Z,6.47
2018-01-22T07:54:13.523Z,5.40
2018-01-22T07:56:49.044Z,5.50
2018-01-22T07:59:16.839Z,5.90
2018-01-22T08:02:20.351Z,6.13
2018-01-22T08:04:48.139Z,10.83
2018-01-22T08:07:17.236Z,14.53
2018-01-22T08:10:20.944Z,7.60
2018-01-22T08:12:49.170Z,7.60
2018-01-22T08:15:19.867Z,15.83
2018-01-22T08:18:17.673Z,12.10
2018-01-22T08:20:45.480Z,7.90
2018-01-22T08:23:14.631Z,11.40
2018-01-22T08:36:28.953Z,12.18
2018-01-22T08:38:56.739Z,10.37
2018-01-22T08:42:15.346Z,13.30
2018-01-22T08:44:52.291Z,23.77
2018-01-22T08:47:20.104Z,19.63
2018-01-22T08:49:47.884Z,12.67
2018-01-22T08:52:15.799Z,9.80
2018-01-22T08:54:43.614Z,15.90
2018-01-22T08:57:11.419Z,14.63
2018-01-22T08:59:39.256Z,10.33
2018-01-22T09:02:07.089Z,13.07
2018-01-22T09:04:34.881Z,12.83
2018-01-22T09:07:02.697Z,13.53
2018-01-22T09:09:30.571Z,16.17
2018-01-22T09:11:58.392Z,9.30
2018-01-22T09:14:26.178Z,4.10
2018-01-22T09:16:54.038Z,8.50
2018-01-22T09:19:22.608Z,9.63
2018-01-22T09:21:50.455Z,15.80
2018-01-22T09:24:18.291Z,17.80
2018-01-22T09:26:46.119Z,9.60
2018-01-22T09:29:13.978Z,11.53
2018-01-22T09:31:41.835Z,16.47
2018-01-22T09:34:09.702Z,14.40
2018-01-22T09:36:37.487Z,22.67
2018-01-22T09:39:05.353Z,12.80
2018-01-22T09:41:33.123Z,27.23
2018-01-22T09:44:01.766Z,20.67
2018-01-22T09:46:29.568Z,24.63
2018-01-22T09:48:58.222Z,15.20
2018-01-22T09:51:26.010Z,19.40
2018-01-22T09:53:53.831Z,11.30
2018-01-22T09:56:21.623Z,13.00
2018-01-22T09:58:49.424Z,25.10
2018-01-22T10:01:17.283Z,22.77
2018-01-22T10:03:45.122Z,15.70
2018-01-22T10:06:13.694Z,21.08
2018-01-22T10:08:41.544Z,19.83
2018-01-22T10:11:09.384Z,19.35
2018-01-22T10:13:37.236Z,19.80
2018-01-22T10:16:05.072Z,26.40
2018-01-22T10:18:33.647Z,20.63
2018-01-22T10:21:01.520Z,23.00
2018-01-22T10:23:29.361Z,19.05
2018-01-22T10:25:57.967Z,19.47
2018-01-22T10:28:25.742Z,21.53
2018-01-22T10:30:54.349Z,22.53
2018-01-22T10:33:22.144Z,15.73
2018-01-22T10:35:50.009Z,19.77
2018-01-22T10:38:17.879Z,19.52
2018-01-22T10:40:45.684Z,16.80
2018-01-22T10:43:14.227Z,14.60
2018-01-22T10:45:42.007Z,11.73
2018-01-22T10:48:09.907Z,17.97
2018-01-22T10:50:38.464Z,10.53
2018-01-22T10:53:06.270Z,10.57
2018-01-22T10:55:34.047Z,14.50
2018-01-22T10:58:01.878Z,14.33
2018-01-22T11:00:30.494Z,14.90
2018-01-22T11:02:59.060Z,25.00
2018-01-22T11:05:26.942Z,13.30
2018-01-22T11:07:54.727Z,13.37
2018-01-22T11:10:22.539Z,9.47
2018-01-22T11:12:51.166Z,15.13
2018-01-22T11:15:34.633Z,18.27
2018-01-22T11:18:02.479Z,21.20
2018-01-22T11:20:30.335Z,15.20
2018-01-22T11:22:58.114Z,17.97
2018-01-22T11:25:25.878Z,19.00
2018-01-22T11:27:53.662Z,22.13
2018-01-22T11:30:21.507Z,19.97
2018-01-22T11:32:49.329Z,21.20
2018-01-22T11:35:17.129Z,26.73
2018-01-22T11:37:44.922Z,21.40
2018-01-22T11:40:12.742Z,26.10
2018-01-22T11:42:40.623Z,27.20
2018-01-22T11:45:08.427Z,28.67
2018-01-22T11:47:36.249Z,28.30
2018-01-22T11:50:04.089Z,17.67
2018-01-22T11:52:31.902Z,21.90
2018-01-22T11:54:59.743Z,21.00
2018-01-22T11:57:27.531Z,20.00
2018-01-22T11:59:55.305Z,23.47
2018-01-22T12:02:23.104Z,21.57
2018-01-22T12:04:52.327Z,15.47
2018-01-22T12:07:20.235Z,17.03
2018-01-22T12:09:48.090Z,22.40
2018-01-22T12:12:15.883Z,25.27
2018-01-22T12:14:43.747Z,24.30
2018-01-22T12:17:12.375Z,19.10
2018-01-22T12:19:40.179Z,19.00
2018-01-22T12:22:07.959Z,31.77
2018-01-22T12:24:35.736Z,20.67
2018-01-22T12:27:04.295Z,23.03
2018-01-22T12:29:32.094Z,23.13
2018-01-22T12:32:00.696Z,22.50
2018-01-22T12:34:28.571Z,43.37
2018-01-22T12:36:56.387Z,43.00
2018-01-22T12:39:24.936Z,50.47
2018-01-22T12:41:52.738Z,52.50
2018-01-22T12:44:21.318Z,70.80
2018-01-22T12:46:49.139Z,74.50
2018-01-22T12:49:16.970Z,70.23
2018-01-22T12:51:47.586Z,50.20
2018-01-22T12:54:16.574Z,30.20
2018-01-22T12:56:45.462Z,25.43
2018-01-22T13:02:33.896Z,22.23
2018-01-22T13:05:02.491Z,26.80
2018-01-22T13:07:30.311Z,28.93
2018-01-22T13:09:58.115Z,21.90
2018-01-22T13:12:25.898Z,33.10
2018-01-22T13:14:53.797Z,33.97
2018-01-22T13:17:21.674Z,25.27
2018-01-22T13:19:49.514Z,24.93
2018-01-22T13:22:18.067Z,25.93
2018-01-22T13:24:45.872Z,39.40
2018-01-22T13:27:14.421Z,42.80
2018-01-22T13:29:42.231Z,30.23
2018-01-22T13:32:10.053Z,31.83
2018-01-22T13:34:38.893Z,23.43
2018-01-22T13:37:06.766Z,24.47
2018-01-22T13:39:34.751Z,23.10
2018-01-22T13:42:02.566Z,34.10
2018-01-22T13:44:31.167Z,30.90
2018-01-22T13:46:58.975Z,36.73
2018-01-22T13:49:26.780Z,40.83
2018-01-22T13:51:55.311Z,28.80
2018-01-22T13:54:23.116Z,29.23
2018-01-22T13:56:51.690Z,34.00
2018-01-22T13:59:19.591Z,26.60
2018-01-22T14:01:47.382Z,38.47
2018-01-22T14:04:15.160Z,32.90
2018-01-22T14:06:43.771Z,34.20
2018-01-22T14:09:12.354Z,31.97
2018-01-22T14:11:40.250Z,33.37
2018-01-22T14:14:08.105Z,34.33
2018-01-22T14:16:36.660Z,25.97
2018-01-22T14:19:04.484Z,34.57
2018-01-22T14:21:32.293Z,36.23
2018-01-22T14:24:00.146Z,25.97
2018-01-22T14:26:28.076Z,20.88
2018-01-22T14:28:55.870Z,16.87
2018-01-22T14:31:23.710Z,25.30
2018-01-22T14:33:51.496Z,18.83
2018-01-22T14:36:19.283Z,22.60
2018-01-22T14:38:47.069Z,16.43
2018-01-22T14:41:15.639Z,21.27
2018-01-22T14:43:44.091Z,16.90
2018-01-22T14:46:13.541Z,17.00
2018-01-22T14:48:43.474Z,16.07
2018-01-22T14:51:11.268Z,21.37
2018-01-22T14:53:39.066Z,19.03
2018-01-22T14:56:07.642Z,18.90
2018-01-22T14:58:35.480Z,24.20
2018-01-22T15:01:03.292Z,15.17
2018-01-22T15:03:31.902Z,15.10
2018-01-22T15:05:59.901Z,21.27
2018-01-22T15:08:27.763Z,15.60
2018-01-22T15:10:55.619Z,17.93
2018-01-22T15:13:23.407Z,23.30
2018-01-22T15:15:51.208Z,11.03
2018-01-22T15:18:24.530Z,15.93
2018-01-22T15:20:53.661Z,14.80
2018-01-22T15:23:21.643Z,11.40
2018-01-22T15:25:49.600Z,9.33
2018-01-22T15:28:17.464Z,8.70
2018-01-22T15:30:45.429Z,12.40
2018-01-22T15:33:13.287Z,10.30
2018-01-22T15:35:41.831Z,13.53
2018-01-22T15:38:10.464Z,10.50
2018-01-22T15:40:38.300Z,18.13
2018-01-22T15:43:06.094Z,14.40
2018-01-22T15:45:33.906Z,14.40
2018-01-22T15:48:02.484Z,9.73
2018-01-22T15:50:31.324Z,11.53
2018-01-22T15:52:59.201Z,15.70
2018-01-22T15:55:26.983Z,15.20
2018-01-22T15:57:54.983Z,10.93
2018-01-22T16:00:22.854Z,14.93
2018-01-22T16:02:50.678Z,10.40
2018-01-22T16:05:18.524Z,13.63
2018-01-22T16:07:46.368Z,9.37
2018-01-22T16:10:14.163Z,12.17
2018-01-22T16:12:42.551Z,14.67
2018-01-22T16:15:10.875Z,12.53
2018-01-22T16:17:38.711Z,8.00
2018-01-22T16:20:07.267Z,8.17
2018-01-22T16:22:35.047Z,17.27
2018-01-22T16:25:02.818Z,10.00
2018-01-22T16:27:30.619Z,14.07
2018-01-22T16:29:58.453Z,11.07
2018-01-22T16:32:26.486Z,8.30
2018-01-22T16:34:54.319Z,11.50
2018-01-22T16:37:22.447Z,8.93
2018-01-22T16:39:50.288Z,9.30
2018-01-22T16:42:18.080Z,12.47
2018-01-22T16:44:45.871Z,11.03
2018-01-22T16:47:20.049Z,9.13
2018-01-22T16:49:47.892Z,17.30
2018-01-22T16:52:15.827Z,10.80
2018-01-22T16:54:44.086Z,18.70
2018-01-22T16:57:12.736Z,27.40
2018-01-22T16:59:40.771Z,21.40
2018-01-22T17:02:08.707Z,13.50
2018-01-22T17:04:37.284Z,18.47
2018-01-22T17:07:05.948Z,13.20
2018-01-22T17:09:33.743Z,11.27
2018-01-22T17:12:02.304Z,14.20
2018-01-22T17:14:30.155Z,15.27
2018-01-22T17:16:57.923Z,7.97
2018-01-22T17:19:25.706Z,27.83
2018-01-22T17:21:53.511Z,13.87
2018-01-22T17:24:21.282Z,19.80
2018-01-22T17:26:49.280Z,23.40
2018-01-22T17:29:17.146Z,19.43
2018-01-22T17:31:44.980Z,18.80
2018-01-22T17:34:12.762Z,14.73
2018-01-22T17:36:40.598Z,18.03
2018-01-22T17:39:08.509Z,16.47
2018-01-22T17:41:36.377Z,14.60
2018-01-22T17:44:04.157Z,17.70
2018-01-22T17:46:31.955Z,16.43
2018-01-22T17:48:59.792Z,23.60
2018-01-22T17:51:27.608Z,16.33
2018-01-22T17:53:55.413Z,19.07
2018-01-22T17:56:24.063Z,21.77
2018-01-22T17:58:51.870Z,24.07
2018-01-22T18:01:19.691Z,14.50
2018-01-22T18:03:47.476Z,15.63
2018-01-22T18:06:15.277Z,21.05
2018-01-22T18:08:43.920Z,20.93
2018-01-22T18:11:11.745Z,20.23
2018-01-22T18:13:39.558Z,14.43
2018-01-22T18:16:07.429Z,14.87
2018-01-22T18:18:35.511Z,25.67
2018-01-22T18:21:03.344Z,21.60
2018-01-22T18:23:31.151Z,20.90
2018-01-22T18:25:58.957Z,20.60
2018-01-22T18:28:26.859Z,32.50
2018-01-22T18:30:54.671Z,17.80
2018-01-22T18:33:23.287Z,18.43
2018-01-22T18:35:51.150Z,19.47
2018-01-22T18:38:19.063Z,15.70
2018-01-22T18:40:46.840Z,14.47
2018-01-22T18:43:14.696Z,23.30
2018-01-22T18:45:43.293Z,20.13
2018-01-22T18:48:11.823Z,16.30
2018-01-22T18:50:39.615Z,25.77
2018-01-22T18:53:09.459Z,21.40
2018-01-22T18:55:38.067Z,23.70
2018-01-22T18:58:05.904Z,16.50
2018-01-22T19:00:34.636Z,25.80
2018-01-22T19:03:03.745Z,17.97
2018-01-22T19:05:31.584Z,29.23
2018-01-22T19:07:59.509Z,20.27
2018-01-22T19:10:28.089Z,21.23
2018-01-22T19:12:57.507Z,19.37
2018-01-22T19:15:26.282Z,15.00
2018-01-22T19:17:54.555Z,15.77
2018-01-22T19:20:24.228Z,16.80
2018-01-22T19:22:58.611Z,18.43
2018-01-22T19:25:26.428Z,20.57
2018-01-22T19:27:54.207Z,18.80
2018-01-22T19:30:22.037Z,19.23
2018-01-22T19:32:50.929Z,38.73
2018-01-22T19:35:18.760Z,24.00
2018-01-22T19:37:46.630Z,19.67
2018-01-22T19:40:14.490Z,22.50
2018-01-22T19:42:42.301Z,30.77
2018-01-22T19:45:10.169Z,32.23
2018-01-22T19:47:38.940Z,47.80
2018-01-22T19:50:06.731Z,36.57
2018-01-22T19:52:34.549Z,30.33
2018-01-22T19:55:02.373Z,63.90
2018-01-22T19:57:30.438Z,30.17
2018-01-22T19:59:58.386Z,152.97
2018-01-22T20:02:26.242Z,184.20
2018-01-22T20:04:54.139Z,112.37
2018-01-22T20:07:21.953Z,94.10
2018-01-22T20:09:49.827Z,36.03
2018-01-22T20:12:17.996Z,31.03
2018-01-22T20:14:45.843Z,30.80
2018-01-22T20:17:14.306Z,27.40
2018-01-22T20:19:44.808Z,25.00
2018-01-22T20:22:18.902Z,28.00
2018-01-22T20:24:46.683Z,38.17
2018-01-22T20:27:15.308Z,39.57
2018-01-22T20:29:43.199Z,22.80
2018-01-22T20:32:11.057Z,19.13
2018-01-22T20:34:38.880Z,23.60
2018-01-22T20:37:06.736Z,20.97
2018-01-22T20:39:35.509Z,19.00
2018-01-22T20:42:03.572Z,21.40
2018-01-22T20:44:31.390Z,21.50
2018-01-22T20:46:59.235Z,27.87
2018-01-22T20:49:27.046Z,23.30
2018-01-22T20:52:02.559Z,25.17
2018-01-22T20:54:30.391Z,30.07
2018-01-22T20:56:58.255Z,27.17
2018-01-22T20:59:26.245Z,22.60
2018-01-22T21:01:54.040Z,22.43
2018-01-22T21:04:22.817Z,21.10
2018-01-22T21:06:50.689Z,16.70
2018-01-22T21:09:18.728Z,21.53
2018-01-22T21:11:46.727Z,22.20
2018-01-22T21:14:15.427Z,28.83
2018-01-22T21:16:43.222Z,25.13
2018-01-22T21:19:12.057Z,19.93
2018-01-22T21:21:39.917Z,32.90
2018-01-22T21:24:07.741Z,30.77
2018-01-22T21:26:35.548Z,20.80
2018-01-22T21:29:03.362Z,20.80
2018-01-22T21:31:31.194Z,22.60
2018-01-22T21:34:01.174Z,30.07
2018-01-22T21:36:29.981Z,19.97
2018-01-22T21:38:58.030Z,20.53
2018-01-22T21:41:25.835Z,20.83
2018-01-22T21:43:54.614Z,23.80
2018-01-22T21:46:22.380Z,26.70
2018-01-22T21:48:50.939Z,25.60
2018-01-22T21:51:18.906Z,22.60
2018-01-22T21:53:46.840Z,22.37
2018-01-22T21:56:14.624Z,27.10
2018-01-22T21:58:42.438Z,24.80
2018-01-22T22:01:10.991Z,23.65
2018-01-22T22:03:38.866Z,25.10
2018-01-22T22:06:11.993Z,26.17
2018-01-22T22:08:39.903Z,27.67
2018-01-22T22:11:07.728Z,24.63
2018-01-22T22:13:36.234Z,24.03
2018-01-22T22:16:04.101Z,24.55
2018-01-22T22:18:31.960Z,25.93
2018-01-22T22:20:59.753Z,28.43
2018-01-22T22:23:27.586Z,20.33
2018-01-22T22:25:55.390Z,25.50
2018-01-22T22:28:23.274Z,26.60
2018-01-22T22:30:51.060Z,20.80
2018-01-22T22:33:18.891Z,23.37
2018-01-22T22:35:46.727Z,28.87
2018-01-22T22:38:14.523Z,25.07
2018-01-22T22:40:42.315Z,28.10
2018-01-22T22:43:10.161Z,22.17
2018-01-22T22:45:38.810Z,25.63
2018-01-22T22:48:06.607Z,23.50
2018-01-22T22:50:34.374Z,17.27
2018-01-22T22:53:02.178Z,14.93
2018-01-22T22:55:29.982Z,22.70
2018-01-22T22:57:57.808Z,22.13
2018-01-22T23:03:57.271Z,27.63
2018-01-22T23:06:25.125Z,21.07
2018-01-22T23:08:53.851Z,26.27
2018-01-22T23:11:22.449Z,23.00
2018-01-22T23:13:50.250Z,20.50
2018-01-22T23:16:18.075Z,21.40
2018-01-22T23:22:18.102Z,27.67
2018-01-22T23:28:18.972Z,26.77
2018-01-22T23:30:47.769Z,22.10
2018-01-22T23:33:15.617Z,18.07
2018-01-22T23:35:43.458Z,23.50
2018-01-22T23:38:11.284Z,21.30
2018-01-22T23:40:40.016Z,21.03
2018-01-22T23:43:09.215Z,19.43
